createdAt,value
2023-05-02T00:02:17.876Z,10.58
2023-05-02T00:04:46.766Z,10.71
2023-05-02T00:07:14.940Z,10.85
2023-05-02T00:09:43.151Z,11.00
2023-05-02T00:12:11.393Z,11.16
2023-05-02T00:14:39.453Z,11.31
2023-05-02T00:17:07.846Z,11.43
2023-05-02T00:19:40.306Z,11.51
2023-05-02T00:22:08.685Z,11.59
2023-05-02T00:24:36.969Z,11.66
2023-05-02T00:27:06.462Z,11.68
2023-05-02T00:29:34.627Z,11.70
2023-05-02T00:32:02.817Z,11.71
2023-05-02T00:34:31.790Z,11.72
2023-05-02T00:36:59.971Z,11.74
2023-05-02T00:39:28.150Z,11.73
2023-05-02T00:41:59.834Z,11.73
2023-05-02T00:44:28.788Z,11.75
2023-05-02T00:46:57.185Z,11.79
2023-05-02T00:49:25.334Z,11.80
2023-05-02T00:51:54.533Z,11.81
2023-05-02T00:54:22.706Z,11.82
2023-05-02T00:56:51.079Z,11.84
2023-05-02T00:59:19.458Z,11.89
2023-05-02T01:01:54.108Z,11.94
2023-05-02T01:04:29.000Z,11.99
2023-05-02T01:07:03.718Z,12.02
2023-05-02T01:10:00.710Z,12.07
2023-05-02T01:12:33.570Z,12.08
2023-05-02T01:15:06.756Z,12.11
2023-05-02T01:17:36.060Z,12.12
2023-05-02T01:20:07.608Z,12.12
2023-05-02T01:22:38.917Z,12.13
2023-05-02T01:25:31.052Z,12.14
2023-05-02T01:28:06.394Z,12.16
2023-05-02T01:30:36.948Z,12.16
2023-05-02T01:33:05.897Z,12.18
2023-05-02T01:35:35.654Z,12.20
2023-05-02T01:38:05.156Z,12.20
2023-05-02T01:40:34.257Z,12.20
2023-05-02T01:43:05.167Z,12.17
2023-05-02T01:45:36.328Z,12.15
2023-05-02T01:48:07.086Z,12.15
2023-05-02T01:50:36.564Z,12.15
2023-05-02T01:53:05.249Z,12.15
2023-05-02T01:55:35.778Z,12.13
2023-05-02T01:58:05.393Z,12.09
2023-05-02T02:00:34.657Z,12.05
2023-05-02T02:03:08.206Z,12.00
2023-05-02T02:05:36.869Z,11.96
2023-05-02T02:08:05.243Z,11.93
2023-05-02T02:10:37.750Z,11.91
2023-05-02T02:13:16.130Z,11.88
2023-05-02T02:15:47.675Z,11.89
2023-05-02T02:18:21.663Z,11.88
2023-05-02T02:20:51.085Z,11.87
2023-05-02T02:23:20.385Z,11.84
2023-05-02T02:25:50.016Z,11.81
2023-05-02T02:28:18.190Z,11.77
2023-05-02T02:30:46.361Z,11.72
2023-05-02T02:33:14.561Z,11.73
2023-05-02T02:35:46.546Z,11.74
2023-05-02T02:38:28.466Z,11.75
2023-05-02T02:41:02.662Z,11.72
2023-05-02T02:43:34.462Z,11.68
2023-05-02T02:46:15.588Z,11.62
2023-05-02T02:48:47.471Z,11.53
2023-05-02T02:51:30.315Z,11.44
2023-05-02T02:54:19.023Z,11.32
2023-05-02T02:57:15.269Z,11.19
2023-05-02T02:59:52.084Z,11.04
2023-05-02T03:02:23.292Z,10.94
2023-05-02T03:04:51.766Z,10.88
2023-05-02T03:07:20.147Z,10.82
2023-05-02T03:09:48.731Z,10.78
2023-05-02T03:12:19.976Z,10.74
2023-05-02T03:14:49.162Z,10.70
2023-05-02T03:17:18.679Z,10.68
2023-05-02T03:19:47.580Z,10.66
2023-05-02T03:22:16.142Z,10.66
2023-05-02T03:24:44.311Z,10.65
2023-05-02T03:27:13.204Z,10.65
2023-05-02T03:29:42.085Z,10.66
2023-05-02T03:32:11.486Z,10.67
2023-05-02T03:34:41.917Z,10.67
2023-05-02T03:37:10.494Z,10.69
2023-05-02T03:39:38.972Z,10.72
2023-05-02T03:42:07.265Z,10.75
2023-05-02T03:44:35.530Z,10.78
2023-05-02T03:47:03.789Z,10.80
2023-05-02T03:49:35.056Z,10.82
2023-05-02T03:52:04.249Z,10.85
2023-05-02T03:54:33.347Z,10.87
2023-05-02T03:57:03.864Z,10.91
2023-05-02T03:59:35.413Z,10.94
2023-05-02T04:02:07.509Z,10.98
2023-05-02T04:04:41.368Z,10.99
2023-05-02T04:07:18.361Z,11.02
2023-05-02T04:09:48.909Z,11.06
2023-05-02T04:12:17.572Z,11.08
2023-05-02T04:14:49.253Z,11.07
2023-05-02T04:17:18.757Z,11.08
2023-05-02T04:19:49.673Z,11.07
2023-05-02T04:22:19.075Z,11.08
2023-05-02T04:24:52.366Z,11.10
2023-05-02T04:27:20.844Z,11.14
2023-05-02T04:29:50.667Z,11.17
2023-05-02T04:32:20.568Z,11.19
2023-05-02T04:34:49.555Z,11.24
2023-05-02T04:37:18.548Z,11.28
2023-05-02T04:39:47.845Z,11.31
2023-05-02T04:42:20.014Z,11.35
2023-05-02T04:44:56.068Z,11.41
2023-05-02T04:47:24.360Z,11.46
2023-05-02T04:49:52.821Z,11.53
2023-05-02T04:52:21.001Z,11.60
2023-05-02T04:54:49.171Z,11.65
2023-05-02T04:57:17.443Z,11.72
2023-05-02T04:59:50.220Z,11.77
2023-05-02T05:02:18.495Z,11.79
2023-05-02T05:04:47.402Z,11.82
2023-05-02T05:07:16.479Z,11.87
2023-05-02T05:09:46.905Z,11.91
2023-05-02T05:12:15.386Z,11.94
2023-05-02T05:14:44.593Z,11.98
2023-05-02T05:17:13.482Z,11.99
2023-05-02T05:19:42.666Z,12.02
2023-05-02T05:22:11.373Z,12.05
2023-05-02T05:24:40.035Z,12.09
2023-05-02T05:27:08.414Z,12.11
2023-05-02T05:29:37.200Z,12.15
2023-05-02T05:32:06.533Z,12.18
2023-05-02T05:34:35.490Z,12.23
2023-05-02T05:37:03.866Z,12.27
2023-05-02T05:39:32.861Z,12.34
2023-05-02T05:42:02.984Z,12.42
2023-05-02T05:44:31.864Z,12.47
2023-05-02T05:47:01.126Z,12.53
2023-05-02T05:49:30.053Z,12.57
2023-05-02T05:51:58.737Z,12.64
2023-05-02T05:54:27.114Z,12.72
2023-05-02T05:56:55.289Z,12.78
2023-05-02T05:59:23.562Z,12.86
2023-05-02T06:01:52.042Z,12.93
2023-05-02T06:04:22.561Z,13.00
2023-05-02T06:06:54.039Z,13.09
2023-05-02T06:09:22.298Z,13.21
2023-05-02T06:11:50.572Z,13.31
2023-05-02T06:14:19.056Z,13.43
2023-05-02T06:16:49.272Z,13.57
2023-05-02T06:19:17.339Z,13.67
2023-05-02T06:21:45.524Z,13.76
2023-05-02T06:24:13.799Z,13.87
2023-05-02T06:26:42.167Z,13.93
2023-05-02T06:29:10.436Z,13.98
2023-05-02T06:31:38.760Z,14.01
2023-05-02T06:34:07.200Z,14.05
2023-05-02T06:36:35.364Z,14.11
2023-05-02T06:39:03.644Z,14.17
2023-05-02T06:41:31.706Z,14.25
2023-05-02T06:44:00.002Z,14.34
2023-05-02T06:46:31.952Z,14.45
2023-05-02T06:49:00.416Z,14.56
2023-05-02T06:51:28.600Z,14.66
2023-05-02T06:53:56.668Z,14.76
2023-05-02T06:56:26.272Z,14.83
2023-05-02T06:58:54.338Z,14.89
2023-05-02T07:01:22.538Z,14.98
2023-05-02T07:03:51.253Z,15.10
2023-05-02T07:06:19.615Z,15.17
2023-05-02T07:08:47.845Z,15.23
2023-05-02T07:11:16.329Z,15.28
2023-05-02T07:13:44.613Z,15.34
2023-05-02T07:16:12.875Z,15.37
2023-05-02T07:18:42.589Z,15.43
2023-05-02T07:21:10.866Z,15.50
2023-05-02T07:23:38.926Z,15.58
2023-05-02T07:26:07.407Z,15.62
2023-05-02T07:28:35.449Z,15.69
2023-05-02T07:31:03.750Z,15.71
2023-05-02T07:33:31.823Z,15.71
2023-05-02T07:36:02.081Z,15.68
2023-05-02T07:38:30.214Z,15.62
2023-05-02T07:40:59.615Z,15.65
2023-05-02T07:43:28.325Z,15.65
2023-05-02T07:45:56.732Z,15.65
2023-05-02T07:48:27.051Z,15.69
2023-05-02T07:50:56.205Z,15.70
2023-05-02T07:53:24.900Z,15.68
2023-05-02T07:55:52.953Z,15.64
2023-05-02T07:58:21.130Z,15.64
2023-05-02T08:00:49.301Z,15.67
2023-05-02T08:03:17.853Z,15.71
2023-05-02T08:05:46.769Z,15.76
2023-05-02T08:08:15.046Z,15.81
2023-05-02T08:10:43.539Z,15.87
2023-05-02T08:13:12.618Z,15.99
2023-05-02T08:15:40.865Z,16.10
2023-05-02T08:18:09.020Z,16.21
2023-05-02T08:20:37.341Z,16.34
2023-05-02T08:23:05.387Z,16.43
2023-05-02T08:25:33.799Z,16.54
2023-05-02T08:28:02.066Z,16.70
2023-05-02T08:30:30.236Z,16.91
2023-05-02T08:32:58.377Z,17.10
2023-05-02T08:35:26.990Z,17.27
2023-05-02T08:37:55.065Z,17.42
2023-05-02T08:40:33.909Z,17.56
2023-05-02T08:43:07.291Z,17.61
2023-05-02T08:45:38.226Z,17.70
2023-05-02T08:48:14.014Z,17.73
2023-05-02T08:50:45.681Z,17.74
2023-05-02T08:53:17.352Z,17.82
2023-05-02T08:55:46.463Z,17.91
2023-05-02T08:58:15.505Z,17.99
2023-05-02T09:00:46.235Z,18.08
2023-05-02T09:03:34.467Z,18.16
2023-05-02T09:06:10.209Z,18.26
2023-05-02T09:08:38.684Z,18.39
2023-05-02T09:11:08.221Z,18.53
2023-05-02T09:13:39.305Z,18.64
2023-05-02T09:16:11.324Z,18.75
2023-05-02T09:18:44.550Z,18.89
2023-05-02T09:21:19.652Z,19.01
2023-05-02T09:23:56.520Z,19.11
2023-05-02T09:26:32.853Z,19.12
2023-05-02T09:29:03.051Z,19.18
2023-05-02T09:34:16.600Z,19.25
2023-05-02T09:36:52.252Z,19.27
2023-05-02T09:39:26.236Z,19.29
2023-05-02T09:41:54.976Z,19.24
2023-05-02T09:44:25.365Z,19.26
2023-05-02T09:46:55.179Z,19.37
2023-05-02T09:49:45.339Z,19.47
2023-05-02T09:52:16.079Z,19.48
2023-05-02T09:54:46.755Z,19.40
2023-05-02T09:57:15.204Z,19.44
2023-05-02T09:59:58.119Z,19.60
2023-05-02T10:02:26.551Z,19.73
2023-05-02T10:04:56.211Z,19.73
2023-05-02T10:07:25.813Z,19.76
2023-05-02T10:09:55.223Z,19.80
2023-05-02T10:12:24.718Z,19.81
2023-05-02T10:15:01.173Z,19.90
2023-05-02T10:17:38.193Z,19.90
2023-05-02T10:20:07.870Z,19.93
2023-05-02T10:22:37.071Z,19.93
2023-05-02T10:25:05.737Z,19.90
2023-05-02T10:27:34.036Z,19.97
2023-05-02T10:30:04.791Z,20.08
2023-05-02T10:32:34.232Z,20.23
2023-05-02T10:35:06.392Z,20.36
2023-05-02T10:37:36.784Z,20.55
2023-05-02T10:40:06.502Z,20.82
2023-05-02T10:42:53.475Z,21.03
2023-05-02T10:45:30.650Z,21.15
2023-05-02T10:48:20.749Z,21.35
2023-05-02T10:51:01.561Z,21.59
2023-05-02T10:53:36.657Z,21.54
2023-05-02T10:56:27.723Z,21.65
2023-05-02T10:59:27.264Z,21.87
2023-05-02T11:01:55.866Z,21.89
2023-05-02T11:04:24.420Z,21.85
2023-05-02T11:07:02.527Z,21.94
2023-05-02T11:09:32.927Z,22.05
2023-05-02T11:12:02.153Z,22.09
2023-05-02T11:14:39.437Z,22.16
2023-05-02T11:17:09.244Z,22.06
2023-05-02T11:19:43.565Z,21.86
2023-05-02T11:22:17.990Z,21.81
2023-05-02T11:24:50.744Z,21.78
2023-05-02T11:27:31.358Z,21.83
2023-05-02T11:30:10.041Z,21.99
2023-05-02T11:32:52.174Z,22.12
2023-05-02T11:35:27.423Z,22.19
2023-05-02T11:38:00.055Z,22.15
2023-05-02T11:40:28.956Z,22.08
2023-05-02T11:42:59.168Z,22.08
2023-05-02T11:45:36.510Z,22.13
2023-05-02T11:48:08.881Z,22.15
2023-05-02T11:50:49.578Z,22.18
2023-05-02T11:53:24.429Z,22.43
2023-05-02T11:56:01.226Z,22.61
2023-05-02T11:58:32.983Z,22.81
2023-05-02T12:01:14.514Z,23.08
2023-05-02T12:03:43.053Z,23.33
2023-05-02T12:06:14.406Z,23.25
2023-05-02T12:08:44.106Z,23.14
2023-05-02T12:11:17.058Z,23.13
2023-05-02T12:13:50.520Z,23.20
2023-05-02T12:16:19.823Z,23.21
2023-05-02T12:18:48.563Z,23.11
2023-05-02T12:21:18.037Z,23.06
2023-05-02T12:23:46.633Z,23.06
2023-05-02T12:26:19.524Z,23.17
2023-05-02T12:28:51.875Z,23.13
2023-05-02T12:31:20.938Z,23.01
2023-05-02T12:33:50.989Z,22.86
2023-05-02T12:36:19.918Z,22.66
2023-05-02T12:39:00.059Z,22.59
2023-05-02T12:41:35.473Z,22.64
2023-05-02T12:44:04.561Z,22.68
2023-05-02T12:46:33.103Z,22.69
2023-05-02T12:49:06.347Z,22.91
2023-05-02T12:51:34.923Z,23.02
2023-05-02T12:54:06.581Z,23.07
2023-05-02T12:56:41.902Z,23.06
2023-05-02T12:59:24.936Z,22.84
2023-05-02T13:01:53.107Z,22.65
2023-05-02T13:04:21.403Z,22.53
2023-05-02T13:06:49.807Z,22.42
2023-05-02T13:09:18.949Z,22.30
2023-05-02T13:11:47.746Z,22.06
2023-05-02T13:14:15.908Z,22.01
2023-05-02T13:16:44.035Z,22.00
2023-05-02T13:19:12.708Z,21.96
2023-05-02T13:21:41.140Z,21.90
2023-05-02T13:24:09.218Z,21.87
2023-05-02T13:26:37.277Z,22.02
2023-05-02T13:29:06.285Z,22.04
2023-05-02T13:31:34.497Z,21.99
2023-05-02T13:34:04.768Z,21.97
2023-05-02T13:36:32.940Z,22.06
2023-05-02T13:39:01.930Z,22.14
2023-05-02T13:41:30.102Z,22.13
2023-05-02T13:43:58.373Z,22.12
2023-05-02T13:46:27.012Z,22.09
2023-05-02T13:48:55.132Z,22.15
2023-05-02T13:51:25.047Z,22.45
2023-05-02T13:53:53.220Z,22.79
2023-05-02T13:56:21.593Z,22.94
2023-05-02T13:58:49.662Z,22.93
2023-05-02T14:01:17.795Z,23.06
2023-05-02T14:03:46.584Z,23.08
2023-05-02T14:06:14.919Z,23.04
2023-05-02T14:08:43.792Z,23.01
2023-05-02T14:11:11.960Z,22.89
2023-05-02T14:13:40.030Z,22.59
2023-05-02T14:16:08.416Z,22.37
2023-05-02T14:18:36.689Z,22.11
2023-05-02T14:21:05.344Z,21.96
2023-05-02T14:23:34.132Z,21.85
2023-05-02T14:26:02.959Z,21.73
2023-05-02T14:28:31.427Z,21.56
2023-05-02T14:30:59.797Z,21.50
2023-05-02T14:33:27.966Z,21.47
2023-05-02T14:35:56.035Z,21.44
2023-05-02T14:38:24.307Z,21.24
2023-05-02T14:40:52.600Z,20.92
2023-05-02T14:43:21.489Z,20.56
2023-05-02T14:45:49.646Z,20.25
2023-05-02T14:48:17.953Z,19.99
2023-05-02T14:50:46.195Z,19.78
2023-05-02T14:53:14.575Z,19.56
2023-05-02T14:55:42.751Z,19.28
2023-05-02T14:58:11.021Z,19.04
2023-05-02T15:00:39.364Z,18.85
2023-05-02T15:03:09.997Z,18.69
2023-05-02T15:05:38.499Z,18.55
2023-05-02T15:08:07.292Z,18.44
2023-05-02T15:10:39.596Z,18.39
2023-05-02T15:13:09.041Z,18.41
2023-05-02T15:15:37.687Z,18.43
2023-05-02T15:18:06.070Z,18.46
2023-05-02T15:20:34.513Z,18.43
2023-05-02T15:23:03.831Z,18.43
2023-05-02T15:25:32.183Z,18.41
2023-05-02T15:28:02.518Z,18.45
2023-05-02T15:30:30.673Z,18.55
2023-05-02T15:32:58.783Z,18.62
2023-05-02T15:35:26.919Z,18.68
2023-05-02T15:37:56.221Z,18.70
2023-05-02T15:40:26.336Z,18.75
2023-05-02T15:42:54.826Z,18.83
2023-05-02T15:45:23.518Z,18.85
2023-05-02T15:47:52.229Z,18.87
2023-05-02T15:50:20.457Z,18.92
2023-05-02T15:52:48.630Z,18.95
2023-05-02T15:55:17.114Z,18.95
2023-05-02T15:57:45.288Z,18.90
2023-05-02T16:00:17.035Z,18.85
2023-05-02T16:02:45.319Z,18.79
2023-05-02T16:05:13.683Z,18.68
2023-05-02T16:07:41.857Z,18.54
2023-05-02T16:10:10.291Z,18.34
2023-05-02T16:12:38.408Z,18.15
2023-05-02T16:15:08.557Z,17.98
2023-05-02T16:17:36.759Z,17.81
2023-05-02T16:20:06.404Z,17.64
2023-05-02T16:22:34.995Z,17.50
2023-05-02T16:25:03.466Z,17.41
2023-05-02T16:27:31.542Z,17.35
2023-05-02T16:30:00.009Z,17.31
2023-05-02T16:32:28.969Z,17.22
2023-05-02T16:34:57.088Z,17.12
2023-05-02T16:37:25.151Z,17.04
2023-05-02T16:39:53.324Z,16.94
2023-05-02T16:42:21.493Z,16.85
2023-05-02T16:44:49.671Z,16.76
2023-05-02T16:47:18.361Z,16.68
2023-05-02T16:49:46.535Z,16.57
2023-05-02T16:52:15.219Z,16.45
2023-05-02T16:54:43.284Z,16.33
2023-05-02T16:57:11.555Z,16.22
2023-05-02T16:59:39.724Z,16.15
2023-05-02T17:02:07.833Z,16.03
2023-05-02T17:04:36.180Z,15.93
2023-05-02T17:07:04.351Z,15.87
2023-05-02T17:09:33.475Z,15.81
2023-05-02T17:12:03.043Z,15.76
2023-05-02T17:14:32.546Z,15.71
2023-05-02T17:17:01.571Z,15.69
2023-05-02T17:19:29.916Z,15.61
2023-05-02T17:21:58.601Z,15.55
2023-05-02T17:24:26.770Z,15.50
2023-05-02T17:26:54.947Z,15.44
2023-05-02T17:29:23.116Z,15.42
2023-05-02T17:31:51.415Z,15.37
2023-05-02T17:34:19.667Z,15.31
2023-05-02T17:36:47.734Z,15.28
2023-05-02T17:39:16.215Z,15.26
2023-05-02T17:41:44.498Z,15.23
2023-05-02T17:44:12.661Z,15.19
2023-05-02T17:46:40.852Z,15.16
2023-05-02T17:49:09.211Z,15.13
2023-05-02T17:51:37.385Z,15.11
2023-05-02T17:54:05.983Z,15.06
2023-05-02T17:56:37.563Z,14.98
2023-05-02T17:59:05.805Z,14.93
2023-05-02T18:01:33.993Z,14.88
2023-05-02T18:04:04.222Z,14.82
2023-05-02T18:06:32.629Z,14.74
2023-05-02T18:09:00.938Z,14.68
2023-05-02T18:11:38.848Z,14.62
2023-05-02T18:14:07.321Z,14.55
2023-05-02T18:16:36.623Z,14.49
2023-05-02T18:19:05.001Z,14.43
2023-05-02T18:21:35.479Z,14.37
2023-05-02T18:24:03.802Z,14.30
2023-05-02T18:26:32.174Z,14.24
2023-05-02T18:29:00.347Z,14.20
2023-05-02T18:31:28.576Z,14.14
2023-05-02T18:33:56.798Z,14.09
2023-05-02T18:36:26.092Z,14.04
2023-05-02T18:38:57.546Z,13.98
2023-05-02T18:41:25.715Z,13.91
2023-05-02T18:43:54.808Z,13.85
2023-05-02T18:46:23.073Z,13.79
2023-05-02T18:48:51.353Z,13.72
2023-05-02T18:51:19.423Z,13.65
2023-05-02T18:53:49.241Z,13.56
2023-05-02T18:56:17.715Z,13.50
2023-05-02T18:58:46.403Z,13.44
2023-05-02T19:01:16.084Z,13.37
2023-05-02T19:03:44.648Z,13.31
2023-05-02T19:06:13.622Z,13.25
2023-05-02T19:08:42.185Z,13.22
2023-05-02T19:11:10.359Z,13.18
2023-05-02T19:13:39.019Z,13.14
2023-05-02T19:16:11.960Z,13.12
2023-05-02T19:18:40.807Z,13.10
2023-05-02T19:21:13.874Z,13.07
2023-05-02T19:23:43.159Z,13.04
2023-05-02T19:26:15.863Z,13.01
2023-05-02T19:28:44.976Z,12.98
2023-05-02T19:31:17.749Z,12.93
2023-05-02T19:33:52.390Z,12.86
2023-05-02T19:36:24.840Z,12.81
2023-05-02T19:38:54.648Z,12.76
2023-05-02T19:41:22.813Z,12.70
2023-05-02T19:43:51.499Z,12.66
2023-05-02T19:46:19.795Z,12.63
2023-05-02T19:48:48.360Z,12.59
2023-05-02T19:51:25.557Z,12.54
2023-05-02T19:53:54.440Z,12.52
2023-05-02T19:56:25.562Z,12.50
2023-05-02T19:58:54.049Z,12.48
2023-05-02T20:01:22.481Z,12.47
2023-05-02T20:03:51.197Z,12.47
2023-05-02T20:06:19.591Z,12.47
2023-05-02T20:08:47.760Z,12.48
2023-05-02T20:11:15.828Z,12.47
2023-05-02T20:13:44.509Z,12.47
2023-05-02T20:16:13.988Z,12.47
2023-05-02T20:18:42.184Z,12.47
2023-05-02T20:21:10.561Z,12.46
2023-05-02T20:23:40.367Z,12.45
2023-05-02T20:26:08.545Z,12.45
2023-05-02T20:28:37.908Z,12.45
2023-05-02T20:31:06.012Z,12.44
2023-05-02T20:33:44.341Z,12.42
2023-05-02T20:36:14.997Z,12.41
2023-05-02T20:38:44.986Z,12.37
2023-05-02T20:41:14.309Z,12.32
2023-05-02T20:43:45.347Z,12.30
2023-05-02T20:46:17.509Z,12.26
2023-05-02T20:48:45.760Z,12.21
2023-05-02T20:51:16.324Z,12.16
2023-05-02T20:53:44.958Z,12.12
2023-05-02T20:56:13.336Z,12.08
2023-05-02T20:58:41.523Z,12.00
2023-05-02T21:01:09.712Z,11.94
2023-05-02T21:03:40.898Z,11.89
2023-05-02T21:06:09.124Z,11.82
2023-05-02T21:08:37.477Z,11.76
2023-05-02T21:11:15.688Z,11.71
2023-05-02T21:13:44.073Z,11.67
2023-05-02T21:16:19.560Z,11.62
2023-05-02T21:18:48.300Z,11.59
2023-05-02T21:21:16.579Z,11.57
2023-05-02T21:23:44.777Z,11.49
2023-05-02T21:26:13.014Z,11.45
2023-05-02T21:28:41.287Z,11.39
2023-05-02T21:31:10.823Z,11.33
2023-05-02T21:33:38.963Z,11.26
2023-05-02T21:36:07.651Z,11.22
2023-05-02T21:38:35.919Z,11.17
2023-05-02T21:41:05.429Z,11.14
2023-05-02T21:43:36.874Z,11.12
2023-05-02T21:46:05.045Z,11.08
2023-05-02T21:48:34.134Z,11.04
2023-05-02T21:51:09.284Z,11.02
2023-05-02T21:53:38.066Z,11.01
2023-05-02T21:56:07.361Z,10.99
2023-05-02T21:58:35.845Z,10.97
2023-05-02T22:01:04.142Z,10.97
2023-05-02T22:03:34.818Z,10.96
2023-05-02T22:06:06.638Z,10.92
2023-05-02T22:08:35.400Z,10.91
2023-05-02T22:11:08.292Z,10.90
2023-05-02T22:13:37.115Z,10.89
2023-05-02T22:16:06.806Z,10.89
2023-05-02T22:18:35.046Z,10.89
2023-05-02T22:21:03.961Z,10.88
2023-05-02T22:23:32.111Z,10.87
2023-05-02T22:26:00.386Z,10.85
2023-05-02T22:28:28.547Z,10.85
2023-05-02T22:30:56.724Z,10.83
2023-05-02T22:33:25.199Z,10.80
2023-05-02T22:35:53.277Z,10.78
2023-05-02T22:38:21.440Z,10.72
2023-05-02T22:40:49.616Z,10.70
2023-05-02T22:43:17.932Z,10.66
2023-05-02T22:45:46.576Z,10.64
2023-05-02T22:48:14.650Z,10.62
2023-05-02T22:50:43.634Z,10.58
2023-05-02T22:53:11.709Z,10.55
2023-05-02T22:55:39.876Z,10.52
2023-05-02T22:58:08.061Z,10.48
2023-05-02T23:00:36.736Z,10.46
2023-05-02T23:03:05.309Z,10.44
2023-05-02T23:05:33.492Z,10.41
2023-05-02T23:08:01.558Z,10.36
2023-05-02T23:10:29.733Z,10.33
2023-05-02T23:12:57.902Z,10.32
2023-05-02T23:15:26.076Z,10.33
2023-05-02T23:17:54.260Z,10.35
2023-05-02T23:20:23.382Z,10.35
2023-05-02T23:22:51.817Z,10.35
2023-05-02T23:25:20.197Z,10.34
2023-05-02T23:27:49.002Z,10.32
2023-05-02T23:30:17.049Z,10.30
2023-05-02T23:32:45.957Z,10.24
2023-05-02T23:35:14.209Z,10.21
2023-05-02T23:37:42.386Z,10.16
2023-05-02T23:40:10.770Z,10.11
2023-05-02T23:42:40.531Z,10.04
2023-05-02T23:45:09.688Z,9.96
2023-05-02T23:47:38.368Z,9.88
2023-05-02T23:50:07.535Z,9.80
2023-05-02T23:52:35.937Z,9.73
2023-05-02T23:55:10.502Z,9.65
2023-05-02T23:57:39.440Z,9.55
